createdAt,value
2018-06-24T00:00:42.672Z,3.43
2018-06-24T00:03:10.722Z,3.20
2018-06-24T00:05:38.808Z,3.30
2018-06-24T00:08:06.849Z,3.20
2018-06-24T00:10:35.184Z,3.17
2018-06-24T00:13:03.530Z,3.10
2018-06-24T00:15:31.618Z,3.40
2018-06-24T00:17:59.918Z,2.97
2018-06-24T00:20:28.014Z,3.77
2018-06-24T00:22:56.331Z,3.43
2018-06-24T00:25:24.416Z,3.95
2018-06-24T00:27:52.470Z,3.47
2018-06-24T00:30:20.571Z,3.57
2018-06-24T00:32:48.986Z,2.70
2018-06-24T00:35:17.383Z,3.87
2018-06-24T00:37:45.658Z,3.47
2018-06-24T00:40:14.000Z,3.43
2018-06-24T00:42:42.323Z,3.98
2018-06-24T00:45:10.668Z,3.50
2018-06-24T00:47:39.064Z,4.47
2018-06-24T00:50:07.467Z,3.60
2018-06-24T00:52:35.809Z,3.60
2018-06-24T00:55:04.138Z,3.23
2018-06-24T00:57:32.492Z,3.33
2018-06-24T01:00:15.740Z,3.50
2018-06-24T01:02:43.822Z,4.15
2018-06-24T01:05:12.843Z,4.23
2018-06-24T01:07:41.897Z,3.60
2018-06-24T01:10:10.343Z,3.77
2018-06-24T01:12:38.950Z,3.30
2018-06-24T01:15:07.407Z,3.80
2018-06-24T01:17:35.717Z,3.63
2018-06-24T01:20:05.271Z,4.43
2018-06-24T01:22:33.613Z,4.10
2018-06-24T01:25:01.697Z,3.77
2018-06-24T01:27:29.759Z,4.40
2018-06-24T01:29:57.761Z,3.93
2018-06-24T01:32:26.119Z,3.93
2018-06-24T01:34:54.506Z,4.13
2018-06-24T01:37:26.151Z,4.67
2018-06-24T01:39:54.252Z,4.50
2018-06-24T01:42:22.580Z,4.43
2018-06-24T01:44:50.949Z,4.40
2018-06-24T01:47:19.407Z,4.40
2018-06-24T01:49:47.720Z,4.80
2018-06-24T01:52:16.092Z,4.23
2018-06-24T01:54:44.416Z,4.80
2018-06-24T01:57:12.717Z,4.33
2018-06-24T01:59:41.043Z,3.90
2018-06-24T02:02:09.126Z,4.63
2018-06-24T02:04:37.211Z,4.53
2018-06-24T02:07:05.307Z,4.23
2018-06-24T02:09:33.642Z,3.97
2018-06-24T02:12:01.693Z,5.00
2018-06-24T02:14:30.013Z,4.37
2018-06-24T02:16:58.382Z,4.63
2018-06-24T02:19:26.684Z,4.83
2018-06-24T02:21:54.970Z,4.67
2018-06-24T02:24:23.353Z,4.23
2018-06-24T02:26:51.657Z,4.53
2018-06-24T02:29:19.980Z,4.30
2018-06-24T02:31:48.331Z,5.20
2018-06-24T02:34:16.427Z,5.30
2018-06-24T02:36:44.689Z,4.77
2018-06-24T02:39:12.733Z,4.80
2018-06-24T02:41:41.065Z,4.73
2018-06-24T02:44:09.367Z,6.25
2018-06-24T02:46:37.730Z,4.67
2018-06-24T02:49:06.097Z,4.23
2018-06-24T02:51:34.429Z,4.60
2018-06-24T02:54:02.771Z,5.47
2018-06-24T02:56:31.183Z,4.30
2018-06-24T02:58:59.512Z,5.37
2018-06-24T03:01:27.607Z,5.87
2018-06-24T03:03:55.975Z,5.53
2018-06-24T03:06:24.333Z,5.30
2018-06-24T03:08:52.665Z,4.60
2018-06-24T03:11:21.023Z,4.37
2018-06-24T03:13:49.333Z,5.10
2018-06-24T03:16:17.672Z,5.53
2018-06-24T03:18:45.981Z,4.97
2018-06-24T03:21:14.281Z,5.63
2018-06-24T03:23:42.379Z,5.50
2018-06-24T03:26:10.684Z,5.47
2018-06-24T03:28:38.978Z,5.37
2018-06-24T03:31:07.403Z,5.10
2018-06-24T03:33:35.456Z,6.60
2018-06-24T03:36:03.734Z,5.33
2018-06-24T03:38:32.119Z,5.57
2018-06-24T03:41:00.206Z,5.23
2018-06-24T03:43:28.253Z,5.30
2018-06-24T03:45:56.340Z,5.87
2018-06-24T03:48:24.473Z,6.50
2018-06-24T03:50:52.781Z,5.57
2018-06-24T03:53:20.917Z,5.83
2018-06-24T03:55:49.185Z,4.93
2018-06-24T03:58:17.559Z,5.90
2018-06-24T04:00:45.933Z,5.80
2018-06-24T04:03:14.287Z,6.40
2018-06-24T04:05:42.585Z,5.80
2018-06-24T04:08:10.901Z,5.13
2018-06-24T04:10:39.247Z,5.53
2018-06-24T04:13:07.546Z,6.35
2018-06-24T04:15:35.898Z,5.40
2018-06-24T04:18:04.188Z,6.83
2018-06-24T04:20:32.473Z,6.13
2018-06-24T04:23:00.812Z,4.93
2018-06-24T04:25:29.118Z,5.67
2018-06-24T04:27:57.438Z,5.40
2018-06-24T04:30:25.750Z,5.63
2018-06-24T04:32:54.147Z,5.57
2018-06-24T04:35:22.437Z,5.93
2018-06-24T04:37:50.773Z,6.10
2018-06-24T04:40:18.832Z,5.50
2018-06-24T04:42:47.114Z,5.47
2018-06-24T04:45:15.219Z,6.13
2018-06-24T04:47:43.535Z,4.93
2018-06-24T04:50:11.852Z,6.13
2018-06-24T04:52:40.190Z,6.40
2018-06-24T04:55:08.532Z,6.55
2018-06-24T04:57:36.839Z,6.78
2018-06-24T05:00:05.293Z,5.50
2018-06-24T05:02:33.605Z,6.90
2018-06-24T05:05:01.923Z,5.63
2018-06-24T05:07:30.019Z,7.00
2018-06-24T05:09:58.298Z,5.60
2018-06-24T05:12:26.634Z,5.23
2018-06-24T05:14:54.745Z,5.27
2018-06-24T05:17:22.755Z,4.97
2018-06-24T05:19:51.070Z,5.93
2018-06-24T05:22:19.153Z,5.17
2018-06-24T05:24:47.486Z,6.60
2018-06-24T05:27:15.827Z,6.47
2018-06-24T05:29:44.166Z,5.20
2018-06-24T05:32:12.229Z,5.07
2018-06-24T05:34:40.592Z,5.10
2018-06-24T05:37:08.877Z,4.77
2018-06-24T05:39:37.143Z,4.77
2018-06-24T05:42:05.514Z,4.90
2018-06-24T05:44:33.884Z,5.07
2018-06-24T05:47:02.203Z,4.43
2018-06-24T05:49:30.548Z,5.40
2018-06-24T05:51:58.915Z,4.80
2018-06-24T05:54:27.293Z,4.87
2018-06-24T05:56:55.626Z,5.77
2018-06-24T05:59:23.717Z,4.70
2018-06-24T06:01:51.774Z,4.07
2018-06-24T06:04:19.866Z,4.45
2018-06-24T06:06:48.190Z,4.07
2018-06-24T06:09:16.611Z,3.60
2018-06-24T06:11:44.996Z,3.60
2018-06-24T06:14:13.282Z,3.43
2018-06-24T06:16:41.560Z,3.98
2018-06-24T06:19:09.857Z,3.60
2018-06-24T06:21:38.214Z,3.00
2018-06-24T06:24:06.583Z,3.03
2018-06-24T06:26:34.838Z,3.30
2018-06-24T06:29:02.955Z,2.80
2018-06-24T06:31:31.252Z,2.37
2018-06-24T06:33:59.562Z,2.33
2018-06-24T06:36:27.930Z,2.70
2018-06-24T06:38:56.252Z,3.42
2018-06-24T06:41:24.626Z,3.37
2018-06-24T06:43:52.965Z,2.77
2018-06-24T06:46:21.298Z,2.97
2018-06-24T06:48:49.669Z,2.80
2018-06-24T06:51:18.077Z,3.20
2018-06-24T06:53:46.412Z,3.10
2018-06-24T06:56:14.444Z,3.53
2018-06-24T06:58:42.865Z,3.70
2018-06-24T07:01:11.474Z,3.43
2018-06-24T07:03:39.808Z,3.30
2018-06-24T07:06:07.933Z,3.27
2018-06-24T07:08:36.252Z,3.50
2018-06-24T07:11:04.557Z,3.17
2018-06-24T07:13:32.961Z,3.93
2018-06-24T07:16:01.297Z,3.43
2018-06-24T07:18:29.385Z,2.97
2018-06-24T07:20:57.484Z,3.23
2018-06-24T07:23:25.922Z,4.00
2018-06-24T07:25:54.043Z,3.60
2018-06-24T07:28:22.458Z,3.47
2018-06-24T07:30:50.781Z,3.63
2018-06-24T07:33:19.129Z,3.10
2018-06-24T07:35:47.477Z,3.00
2018-06-24T07:38:15.813Z,3.20
2018-06-24T07:40:44.165Z,2.93
2018-06-24T07:43:12.279Z,3.00
2018-06-24T07:45:40.589Z,2.87
2018-06-24T07:48:08.966Z,2.33
2018-06-24T07:50:37.337Z,2.30
2018-06-24T07:53:05.704Z,2.50
2018-06-24T07:55:34.033Z,2.30
2018-06-24T07:58:02.157Z,1.90
2018-06-24T08:00:30.474Z,1.67
2018-06-24T08:02:58.854Z,1.90
2018-06-24T08:05:26.966Z,2.77
2018-06-24T08:07:55.400Z,2.10
2018-06-24T08:10:23.767Z,2.53
2018-06-24T08:12:52.430Z,2.10
2018-06-24T08:15:20.710Z,2.33
2018-06-24T08:17:49.084Z,2.50
2018-06-24T08:20:17.487Z,2.70
2018-06-24T08:22:45.838Z,2.73
2018-06-24T08:25:14.194Z,3.00
2018-06-24T08:27:42.557Z,2.50
2018-06-24T08:30:10.646Z,2.40
2018-06-24T08:32:39.006Z,2.40
2018-06-24T08:35:07.083Z,3.10
2018-06-24T08:37:35.166Z,2.63
2018-06-24T08:40:03.453Z,3.00
2018-06-24T08:42:31.814Z,3.37
2018-06-24T08:44:59.944Z,3.40
2018-06-24T08:47:28.307Z,3.20
2018-06-24T08:49:56.751Z,3.90
2018-06-24T08:52:24.807Z,3.40
2018-06-24T08:54:52.938Z,3.20
2018-06-24T08:57:21.356Z,3.97
2018-06-24T08:59:49.433Z,3.77
2018-06-24T09:02:17.551Z,4.33
2018-06-24T09:04:45.905Z,3.90
2018-06-24T09:07:14.258Z,4.63
2018-06-24T09:09:42.595Z,4.77
2018-06-24T09:12:10.979Z,4.20
2018-06-24T09:14:39.318Z,4.43
2018-06-24T09:17:07.404Z,4.33
2018-06-24T09:19:35.826Z,3.50
2018-06-24T09:22:04.439Z,3.57
2018-06-24T09:24:32.502Z,4.50
2018-06-24T09:27:00.915Z,3.27
2018-06-24T09:29:29.241Z,5.28
2018-06-24T09:31:57.612Z,4.07
2018-06-24T09:34:25.970Z,4.60
2018-06-24T09:36:54.344Z,4.60
2018-06-24T09:39:22.637Z,4.40
2018-06-24T09:41:51.004Z,4.50
2018-06-24T09:44:19.319Z,4.60
2018-06-24T09:46:47.684Z,4.80
2018-06-24T09:49:16.044Z,6.08
2018-06-24T09:51:44.456Z,5.10
2018-06-24T09:54:12.807Z,4.77
2018-06-24T09:56:41.191Z,5.20
2018-06-24T09:59:09.551Z,4.13
2018-06-24T10:01:37.865Z,3.80
2018-06-24T10:04:06.357Z,4.27
2018-06-24T10:06:34.689Z,3.87
2018-06-24T10:09:03.242Z,5.15
2018-06-24T10:11:31.647Z,3.90
2018-06-24T10:13:59.999Z,3.87
2018-06-24T10:16:28.389Z,4.17
2018-06-24T10:18:56.804Z,4.53
2018-06-24T10:21:25.180Z,3.70
2018-06-24T10:23:53.571Z,3.80
2018-06-24T10:26:22.045Z,3.37
2018-06-24T10:28:50.412Z,4.20
2018-06-24T10:31:18.738Z,4.30
2018-06-24T10:33:47.425Z,4.73
2018-06-24T10:36:16.032Z,6.35
2018-06-24T10:38:44.422Z,7.17
2018-06-24T10:41:12.808Z,4.60
2018-06-24T10:43:41.155Z,4.70
2018-06-24T10:46:09.524Z,3.33
2018-06-24T10:48:37.857Z,3.17
2018-06-24T10:51:06.382Z,3.37
2018-06-24T10:53:34.786Z,4.20
2018-06-24T10:56:03.455Z,4.53
2018-06-24T10:58:33.377Z,4.50
2018-06-24T11:01:01.745Z,5.27
2018-06-24T11:03:30.116Z,4.97
2018-06-24T11:05:58.576Z,4.90
2018-06-24T11:08:27.023Z,5.58
2018-06-24T11:10:55.397Z,3.90
2018-06-24T11:13:23.770Z,4.17
2018-06-24T11:15:51.885Z,3.90
2018-06-24T11:18:20.259Z,4.33
2018-06-24T11:20:48.633Z,4.30
2018-06-24T11:23:17.199Z,3.80
2018-06-24T11:25:45.636Z,4.70
2018-06-24T11:28:15.466Z,3.97
2018-06-24T11:30:43.825Z,4.40
2018-06-24T11:33:13.196Z,4.53
2018-06-24T11:35:41.554Z,3.83
2018-06-24T11:38:09.980Z,4.70
2018-06-24T11:40:38.386Z,5.40
2018-06-24T11:43:07.572Z,4.10
2018-06-24T11:45:35.965Z,3.90
2018-06-24T11:48:04.333Z,3.80
2018-06-24T11:50:32.725Z,3.70
2018-06-24T11:53:01.090Z,3.93
2018-06-24T11:55:29.889Z,4.47
2018-06-24T11:57:58.282Z,3.43
2018-06-24T12:00:26.663Z,3.50
2018-06-24T12:02:55.034Z,5.33
2018-06-24T12:05:23.401Z,4.33
2018-06-24T12:07:51.736Z,3.63
2018-06-24T12:10:20.163Z,4.92
2018-06-24T12:12:48.232Z,4.13
2018-06-24T12:15:16.704Z,3.40
2018-06-24T12:17:45.072Z,3.57
2018-06-24T12:20:13.419Z,4.03
2018-06-24T12:22:41.816Z,4.35
2018-06-24T12:25:10.169Z,3.73
2018-06-24T12:27:38.512Z,3.33
2018-06-24T12:30:06.995Z,3.63
2018-06-24T12:32:35.148Z,3.30
2018-06-24T12:35:03.501Z,4.23
2018-06-24T12:37:31.902Z,5.05
2018-06-24T12:39:59.979Z,3.97
2018-06-24T12:42:28.320Z,3.57
2018-06-24T12:44:56.649Z,3.13
2018-06-24T12:47:25.024Z,3.20
2018-06-24T12:49:53.381Z,4.77
2018-06-24T12:52:21.880Z,3.90
2018-06-24T12:54:51.274Z,4.43
2018-06-24T12:57:19.658Z,3.63
2018-06-24T12:59:48.190Z,3.60
2018-06-24T13:02:16.474Z,3.47
2018-06-24T13:04:44.860Z,4.20
2018-06-24T13:07:13.217Z,4.13
2018-06-24T13:09:41.598Z,4.10
2018-06-24T13:12:09.898Z,3.87
2018-06-24T13:14:38.249Z,3.80
2018-06-24T13:17:06.718Z,4.50
2018-06-24T13:19:34.839Z,4.20
2018-06-24T13:22:03.258Z,3.57
2018-06-24T13:24:31.443Z,3.60
2018-06-24T13:27:01.047Z,4.40
2018-06-24T13:29:29.166Z,4.03
2018-06-24T13:31:57.589Z,4.73
2018-06-24T13:34:27.495Z,4.30
2018-06-24T13:36:55.876Z,5.17
2018-06-24T13:39:24.298Z,4.67
2018-06-24T13:41:52.650Z,4.63
2018-06-24T13:44:23.935Z,4.60
2018-06-24T13:46:52.920Z,3.87
2018-06-24T13:49:21.643Z,4.43
2018-06-24T13:51:50.071Z,3.90
2018-06-24T13:54:18.186Z,5.90
2018-06-24T13:56:46.569Z,4.73
2018-06-24T13:59:16.140Z,4.93
2018-06-24T14:01:45.762Z,4.67
2018-06-24T14:04:15.099Z,4.90
2018-06-24T14:06:43.667Z,4.80
2018-06-24T14:09:14.414Z,5.27
2018-06-24T14:11:43.282Z,4.50
2018-06-24T14:14:12.671Z,4.57
2018-06-24T14:16:46.227Z,4.97
2018-06-24T14:19:14.711Z,4.70
2018-06-24T14:21:46.122Z,3.50
2018-06-24T14:24:14.562Z,3.80
2018-06-24T14:26:42.972Z,3.97
2018-06-24T14:29:11.369Z,3.90
2018-06-24T14:31:39.747Z,4.40
2018-06-24T14:34:08.136Z,4.10
2018-06-24T14:36:36.562Z,4.30
2018-06-24T14:39:07.959Z,4.70
2018-06-24T14:41:36.505Z,4.53
2018-06-24T14:44:05.050Z,4.53
2018-06-24T14:46:33.429Z,5.20
2018-06-24T14:49:01.832Z,5.10
2018-06-24T14:51:30.301Z,4.13
2018-06-24T14:54:09.504Z,5.83
2018-06-24T14:56:37.932Z,4.50
2018-06-24T14:59:06.399Z,5.33
2018-06-24T15:01:34.799Z,4.33
2018-06-24T15:04:03.169Z,4.67
2018-06-24T15:06:32.380Z,3.93
2018-06-24T15:09:01.591Z,3.83
2018-06-24T15:11:29.923Z,4.23
2018-06-24T15:13:58.355Z,4.80
2018-06-24T15:16:26.820Z,4.60
2018-06-24T15:18:55.261Z,4.17
2018-06-24T15:21:23.693Z,4.90
2018-06-24T15:23:52.076Z,4.10
2018-06-24T15:26:20.556Z,4.03
2018-06-24T15:28:48.917Z,4.70
2018-06-24T15:31:17.425Z,4.57
2018-06-24T15:33:46.852Z,4.37
2018-06-24T15:36:15.273Z,4.40
2018-06-24T15:38:43.810Z,4.00
2018-06-24T15:41:15.567Z,4.13
2018-06-24T15:43:44.014Z,3.70
2018-06-24T15:46:12.613Z,3.83
2018-06-24T15:48:46.176Z,3.53
2018-06-24T15:51:15.536Z,4.50
2018-06-24T15:53:43.647Z,3.77
2018-06-24T15:56:13.083Z,3.25
2018-06-24T15:58:41.441Z,3.77
2018-06-24T16:01:09.594Z,3.45
2018-06-24T16:03:38.000Z,6.10
2018-06-24T16:06:06.749Z,3.95
2018-06-24T16:08:35.202Z,4.00
2018-06-24T16:11:04.498Z,3.60
2018-06-24T16:13:33.760Z,3.37
2018-06-24T16:16:02.158Z,3.17
2018-06-24T16:18:30.575Z,3.00
2018-06-24T16:20:59.120Z,3.20
2018-06-24T16:23:28.802Z,2.93
2018-06-24T16:25:57.183Z,3.30
2018-06-24T16:28:25.288Z,2.97
2018-06-24T16:30:53.800Z,2.07
2018-06-24T16:33:22.182Z,2.40
2018-06-24T16:35:50.585Z,3.30
2018-06-24T16:38:18.991Z,2.77
2018-06-24T16:40:47.967Z,3.00
2018-06-24T16:43:16.430Z,2.77
2018-06-24T16:45:44.798Z,2.70
2018-06-24T16:48:13.939Z,2.67
2018-06-24T16:50:42.329Z,2.20
2018-06-24T16:53:10.731Z,2.90
2018-06-24T16:55:39.056Z,2.67
2018-06-24T16:58:08.603Z,3.23
2018-06-24T17:00:37.014Z,2.57
2018-06-24T17:03:05.933Z,3.90
2018-06-24T17:05:34.403Z,3.67
2018-06-24T17:08:02.821Z,4.30
2018-06-24T17:10:31.244Z,3.60
2018-06-24T17:12:59.579Z,3.20
2018-06-24T17:15:27.802Z,2.80
2018-06-24T17:17:56.163Z,3.53
2018-06-24T17:20:24.665Z,3.30
2018-06-24T17:22:53.124Z,3.10
2018-06-24T17:25:21.505Z,3.47
2018-06-24T17:27:49.924Z,2.90
2018-06-24T17:30:18.381Z,2.80
2018-06-24T17:32:46.770Z,3.00
2018-06-24T17:35:15.138Z,3.07
2018-06-24T17:37:44.440Z,3.58
2018-06-24T17:40:12.820Z,3.23
2018-06-24T17:42:41.236Z,3.10
2018-06-24T17:45:09.618Z,3.90
2018-06-24T17:47:37.873Z,4.17
2018-06-24T17:50:06.229Z,3.10
2018-06-24T17:52:34.689Z,3.03
2018-06-24T17:55:03.056Z,2.63
2018-06-24T17:57:31.140Z,2.00
2018-06-24T17:59:59.590Z,2.43
2018-06-24T18:02:28.038Z,2.80
2018-06-24T18:04:56.447Z,2.83
2018-06-24T18:07:24.788Z,3.03
2018-06-24T18:09:53.155Z,2.60
2018-06-24T18:12:21.904Z,2.90
2018-06-24T18:14:50.387Z,2.20
2018-06-24T18:17:18.859Z,2.53
2018-06-24T18:19:48.516Z,2.63
2018-06-24T18:22:17.013Z,3.00
2018-06-24T18:24:45.399Z,3.80
2018-06-24T18:27:15.209Z,2.83
2018-06-24T18:29:55.701Z,2.90
2018-06-24T18:32:34.589Z,2.87
2018-06-24T18:35:02.972Z,2.97
2018-06-24T18:37:31.332Z,3.13
2018-06-24T18:39:59.693Z,2.83
2018-06-24T18:42:28.156Z,2.77
2018-06-24T18:44:56.263Z,2.60
2018-06-24T18:47:24.612Z,2.63
2018-06-24T18:49:52.721Z,2.90
2018-06-24T18:52:21.974Z,2.33
2018-06-24T18:54:50.930Z,2.33
2018-06-24T18:57:21.029Z,2.37
2018-06-24T18:59:50.898Z,2.33
2018-06-24T19:02:29.455Z,2.57
2018-06-24T19:04:57.530Z,2.47
2018-06-24T19:07:26.219Z,2.67
2018-06-24T19:09:54.628Z,2.83
2018-06-24T19:12:24.271Z,2.40
2018-06-24T19:14:52.395Z,3.10
2018-06-24T19:17:20.891Z,2.73
2018-06-24T19:19:49.211Z,2.67
2018-06-24T19:22:27.502Z,3.20
2018-06-24T19:24:56.724Z,3.10
2018-06-24T19:27:25.770Z,3.20
2018-06-24T19:29:54.198Z,2.67
2018-06-24T19:32:22.373Z,3.85
2018-06-24T19:34:50.430Z,2.90
2018-06-24T19:37:18.881Z,2.97
2018-06-24T19:39:47.328Z,3.10
2018-06-24T19:42:15.449Z,3.67
2018-06-24T19:44:43.819Z,2.90
2018-06-24T19:47:12.209Z,2.80
2018-06-24T19:49:40.544Z,3.20
2018-06-24T19:52:08.966Z,3.37
2018-06-24T19:54:37.315Z,3.13
2018-06-24T19:57:05.747Z,3.33
2018-06-24T19:59:33.858Z,3.53
2018-06-24T20:02:02.267Z,2.97
2018-06-24T20:04:30.705Z,3.00
2018-06-24T20:06:59.046Z,4.10
2018-06-24T20:09:27.492Z,3.80
2018-06-24T20:11:55.514Z,3.43
2018-06-24T20:14:24.568Z,3.90
2018-06-24T20:16:53.012Z,4.77
2018-06-24T20:19:22.045Z,3.37
2018-06-24T20:21:50.416Z,3.80
2018-06-24T20:24:19.712Z,3.50
2018-06-24T20:26:48.012Z,3.80
2018-06-24T20:29:26.873Z,3.33
2018-06-24T20:31:54.920Z,4.30
2018-06-24T20:34:24.289Z,3.27
2018-06-24T20:36:52.678Z,3.50
2018-06-24T20:39:22.508Z,2.83
2018-06-24T20:41:54.019Z,3.17
2018-06-24T20:44:24.322Z,2.33
2018-06-24T20:46:52.425Z,3.30
2018-06-24T20:49:21.763Z,3.10
2018-06-24T20:51:50.954Z,4.23
2018-06-24T20:54:19.318Z,3.90
2018-06-24T20:56:47.688Z,3.40
2018-06-24T20:59:16.257Z,4.37
2018-06-24T21:01:44.732Z,3.70
2018-06-24T21:04:13.232Z,3.67
2018-06-24T21:06:44.687Z,3.80
2018-06-24T21:09:13.004Z,4.00
2018-06-24T21:11:41.113Z,4.43
2018-06-24T21:14:09.495Z,3.80
2018-06-24T21:16:37.845Z,3.90
2018-06-24T21:19:07.231Z,4.33
2018-06-24T21:21:35.666Z,3.90
2018-06-24T21:24:04.991Z,3.93
2018-06-24T21:26:33.358Z,4.53
2018-06-24T21:29:02.605Z,4.95
2018-06-24T21:31:30.704Z,3.40
2018-06-24T21:33:59.078Z,4.40
2018-06-24T21:36:28.454Z,5.30
2018-06-24T21:39:00.542Z,5.37
2018-06-24T21:41:29.412Z,5.57
2018-06-24T21:43:59.943Z,4.37
2018-06-24T21:46:30.634Z,4.50
2018-06-24T21:48:59.004Z,4.00
2018-06-24T21:51:30.184Z,5.33
2018-06-24T21:53:58.813Z,4.27
2018-06-24T21:56:27.118Z,3.53
2018-06-24T21:58:58.228Z,4.40
2018-06-24T22:01:26.631Z,4.43
2018-06-24T22:03:55.238Z,4.47
2018-06-24T22:06:23.644Z,5.00
2018-06-24T22:08:52.255Z,4.63
2018-06-24T22:11:25.453Z,5.67
2018-06-24T22:13:52.187Z,5.93
2018-06-24T22:16:20.708Z,5.17
2018-06-24T22:18:49.263Z,5.40
2018-06-24T22:21:18.051Z,6.23
2018-06-24T22:23:48.600Z,4.90
2018-06-24T22:26:19.783Z,6.45
2018-06-24T22:28:54.040Z,6.00
2018-06-24T22:31:22.464Z,5.20
2018-06-24T22:33:51.353Z,6.03
2018-06-24T22:36:19.785Z,6.07
2018-06-24T22:38:48.152Z,7.20
2018-06-24T22:41:16.401Z,5.77
2018-06-24T22:43:44.814Z,6.37
2018-06-24T22:46:13.210Z,6.30
2018-06-24T22:48:41.537Z,6.80
2018-06-24T22:51:09.964Z,6.43
2018-06-24T22:53:38.123Z,8.13
2018-06-24T22:56:06.734Z,7.70
2018-06-24T22:58:35.121Z,7.47
2018-06-24T23:01:04.420Z,6.87
2018-06-24T23:03:32.754Z,7.03
2018-06-24T23:06:02.301Z,6.70
2018-06-24T23:08:29.743Z,7.83
2018-06-24T23:10:58.193Z,6.27
2018-06-24T23:13:27.287Z,6.00
2018-06-24T23:15:55.769Z,8.03
2018-06-24T23:18:24.140Z,7.43
2018-06-24T23:20:52.568Z,7.33
2018-06-24T23:23:21.127Z,7.33
2018-06-24T23:25:49.598Z,6.27
2018-06-24T23:28:18.256Z,5.80
2018-06-24T23:30:46.732Z,6.93
2018-06-24T23:33:15.103Z,6.70
2018-06-24T23:35:43.662Z,7.37
2018-06-24T23:38:12.107Z,7.57
2018-06-24T23:40:40.481Z,6.70
2018-06-24T23:43:08.953Z,6.23
2018-06-24T23:45:37.599Z,7.00
2018-06-24T23:48:05.940Z,6.27
2018-06-24T23:50:34.080Z,6.27
2018-06-24T23:53:02.606Z,6.60
2018-06-24T23:55:30.979Z,7.50
2018-06-24T23:57:59.321Z,8.38
